Flight Track Log - Related Links

Times and Time Zones

All times are in EDT time to prevent confusion due to time zone crossing. See the N822DK flight status page for this flight to view local times or setup timezone preferences in your user account.

Time Position Orientation Groundspeed Altitude Reporting Facility
EDT Latitude Longitude Course Direction KTS MPH feet Rate Location/Type
Tue 04:43:41 PM 31.8425 -106.3428 312° West 149 171 5,800  Level Albuquerque Center
Tue 04:44:42 PM 31.8775 -106.3592 338° Northwest 181 208 7,500 1,884 Climbing Albuquerque Center
Tue 04:45:42 PM 31.8856 -106.4147 280° West 177 204 9,600 1,934 Climbing Albuquerque Center
Tue 04:46:43 PM 31.8917 -106.4731 277° West 185 213 11,400 1,800 Climbing Albuquerque Center
Tue 04:48:00 PM 32.0781 -106.6658 326° Northwest  Level FlightAware Approximate
Tue 04:48:12 PM 31.9097 -106.5600 284° West 184 212 14,100  Level Albuquerque Center
Tue 04:49:00 PM 32.1242 -106.7156 312° West  Level FlightAware Approximate
Tue 04:49:14 PM 31.9397 -106.5919 318° Northwest 181 208 15,400  Level Albuquerque Center
Tue 04:50:16 PM 31.9914 -106.6331 326° Northwest 186 214 17,100 1,403 Climbing Albuquerque Center
Tue 04:51:18 PM 32.0356 -106.6694 325° Northwest 192 221 18,300 1,220 Climbing Albuquerque Center
Tue 04:52:19 PM 32.0764 -106.7086 321° Northwest 191 220 19,600 1,171 Climbing Albuquerque Center
Tue 04:53:21 PM 32.1206 -106.7475 323° Northwest 198 228 20,700 968 Climbing Albuquerque Center
Tue 04:54:23 PM 32.1672 -106.7922 321° Northwest 213 245 21,600 919 Climbing Albuquerque Center
Tue 04:55:25 PM 32.2142 -106.8364 321° Northwest 216 249 22,600 1,073 Climbing Albuquerque Center
Tue 04:56:26 PM 32.2694 -106.8856 323° Northwest 216 249 23,800 976 Climbing Albuquerque Center
Tue 04:57:28 PM 32.3269 -106.9144 337° Northwest 208 239 24,600 581 Climbing Albuquerque Center
Tue 04:58:30 PM 32.3878 -106.9369 343° North 230 265 25,000 195 Climbing Albuquerque Center
Tue 04:59:31 PM 32.4478 -106.9608 341° North 241 277 25,000  Level Albuquerque Center
Tue 05:00:33 PM 32.5158 -106.9872 342° North 252 290 25,000  Level Albuquerque Center
Tue 05:01:35 PM 32.5850 -107.0150 341° North 260 299 25,000  Level Albuquerque Center
Tue 05:02:36 PM 32.6544 -107.0408 343° North 261 300 25,000  Level Albuquerque Center
Tue 05:03:38 PM 32.7350 -107.0717 342° North 262 302 25,000  Level Albuquerque Center
Tue 05:04:40 PM 32.8033 -107.0975 342° North 260 299 25,000  Level Albuquerque Center
Tue 05:05:41 PM 32.8719 -107.1242 342° North 259 298 25,000  Level Albuquerque Center
Tue 05:06:43 PM 32.9400 -107.1508 342° North 260 299 25,000  Level Albuquerque Center
Tue 05:07:45 PM 33.0092 -107.1786 341° North 262 302 25,000  Level Albuquerque Center
Tue 05:08:46 PM 33.0914 -107.2089 343° North 259 298 25,000  Level Albuquerque Center
Tue 05:09:48 PM 33.1608 -107.2350 343° North 260 299 25,000  Level Albuquerque Center
Tue 05:10:50 PM 33.2314 -107.2633 341° North 266 306 25,000  Level Albuquerque Center
Tue 05:11:52 PM 33.3019 -107.2836 346° North 264 304 25,000  Level Albuquerque Center
Tue 05:12:53 PM 33.3664 -107.2425 28° Northeast 264 304 25,000  Level Albuquerque Center
Tue 05:13:55 PM 33.4347 -107.2161 18° North 260 299 25,000  Level Albuquerque Center
Tue 05:14:57 PM 33.5014 -107.1886 19° North 255 293 25,000  Level Albuquerque Center
Tue 05:15:59 PM 33.5831 -107.1533 20° North 258 297 25,000  Level Albuquerque Center
Tue 05:17:00 PM 33.6506 -107.1236 20° North 258 297 25,000  Level Albuquerque Center
Tue 05:18:02 PM 33.7181 -107.0933 20° North 259 298 25,000  Level Albuquerque Center
Tue 05:19:04 PM 33.7853 -107.0653 19° North 257 296 25,000  Level Albuquerque Center
Tue 05:20:06 PM 33.8533 -107.0342 21° North 260 299 25,000  Level Albuquerque Center
Tue 05:21:07 PM 33.9211 -107.0042 20° North 260 299 25,000  Level Albuquerque Center
Tue 05:22:09 PM 33.9892 -106.9764 19° North 260 299 25,000  Level Albuquerque Center
Tue 05:23:11 PM 34.0708 -106.9403 20° North 260 299 25,000  Level Albuquerque Center
Tue 05:24:12 PM 34.1386 -106.9083 21° North 261 300 25,000  Level Albuquerque Center
Tue 05:25:14 PM 34.2072 -106.8786 20° North 261 300 25,000  Level Albuquerque Center
Tue 05:26:16 PM 34.2756 -106.8483 20° North 261 300 25,000  Level Albuquerque Center
Tue 05:27:17 PM 34.3511 -106.8161 19° North 259 298 25,000  Level Albuquerque Center
Tue 05:28:19 PM 34.4197 -106.7858 20° North 260 299 25,000  Level Albuquerque Center
Tue 05:29:21 PM 34.4872 -106.7564 20° North 259 298 25,000  Level Albuquerque Center
Tue 05:30:23 PM 34.5556 -106.7258 20° North 260 299 25,000  Level Albuquerque Center
Tue 05:31:24 PM 34.6239 -106.6964 20° North 262 302 25,000  Level Albuquerque Center
Tue 05:32:26 PM 34.6928 -106.6672 19° North 262 302 25,000  Level Albuquerque Center
Tue 05:33:28 PM 34.7608 -106.6367 20° North 262 302 25,000  Level Albuquerque Center
Tue 05:34:29 PM 34.8397 -106.6117 15° North 261 300 25,000  Level Albuquerque Center
Tue 05:35:31 PM 34.9206 -106.5900 12° North 265 305 25,000  Level Albuquerque Center
Tue 05:36:33 PM 34.9886 -106.5714 13° North 263 303 25,000  Level Albuquerque Center
Tue 05:37:35 PM 35.0683 -106.5489 13° North 263 303 25,000  Level Albuquerque Center
Tue 05:38:36 PM 35.1294 -106.5306 14° North 265 305 25,000 -244 Level Albuquerque Center
Tue 05:39:38 PM 35.2003 -106.5128 12° North 264 304 24,500 -774 Descending Albuquerque Center
Tue 05:40:40 PM 35.2758 -106.4928 12° North 241 277 23,400 -1,016 Descending Albuquerque Center
Tue 05:41:42 PM 35.3367 -106.4789 11° North 227 261 22,400 -927 Descending Albuquerque Center
Tue 05:42:43 PM 35.4011 -106.4694 North 230 265 21,500 -780 Descending Albuquerque Center
Tue 05:43:45 PM 35.4611 -106.4603 North 224 258 20,800 -677 Descending Albuquerque Center
Tue 05:44:47 PM 35.5197 -106.4567 North 214 246 20,100 -629 Descending Albuquerque Center
Tue 05:45:49 PM 35.5811 -106.4569 360° North 218 251 19,500 -683 Descending Albuquerque Center
Tue 05:46:50 PM 35.6561 -106.4522 North 224 258 18,700 -829 Descending Albuquerque Center
Tue 05:47:52 PM 35.7169 -106.4483 North 221 254 17,800 -726 Descending Albuquerque Center
Tue 05:48:54 PM 35.7792 -106.4450 North 223 257 17,200 -774 Descending Albuquerque Center
Tue 05:49:56 PM 35.8369 -106.4378 North 213 245 16,200 -968 Descending Albuquerque Center
Tue 05:50:58 PM 35.8947 -106.4267 North 206 237 15,200 -927 Descending Albuquerque Center
Tue 05:51:59 PM 35.9511 -106.4092 14° North 212 244 14,300 -634 Descending Albuquerque Center
Tue 05:53:01 PM 35.9981 -106.3789 28° Northeast 197 227 13,900 -387 Descending Albuquerque Center
Tue 05:54:03 PM 36.0467 -106.3497 26° Northeast 193 222 13,500 -195 Descending Albuquerque Center
Tue 05:55:04 PM 36.1058 -106.3117 27° Northeast 198 228 13,500 -98 Level Albuquerque Center
Tue 05:56:06 PM 36.1500 -106.2753 34° Northeast 194 223 13,300 -145 Descending Albuquerque Center
Tue 05:57:08 PM 36.1964 -106.2317 37° Northeast 197 227 13,200 -97 Descending Albuquerque Center

Login

Don't have an account? Register now (free) for customized features, flight alerts, and more!